Durango La Plata County Airport


Codes: KDRO/DRO
Name: Durango La Plata County Airport
City: Durango
Country: United States
Elevation: 6685 ft.
Website:
Wikipedia:

Photos at Durango La Plata County Airport


   Photos courtesy of SpottingLog. You can add your own sightings and photos by signing up for a free trial today.



No photos found.

Weather at Durango La Plata County Airport


Time (UTC)DescriptionTempratureWindCloud coverageVisibilityPressureHumidity
17-Jun-2024 06:00Clear Sky16°C4 mph, N0%10000m1013hPa31%
17-Jun-2024 09:00Clear Sky15°C4 mph, N0%10000m1011hPa27%
17-Jun-2024 12:00Clear Sky12°C7 mph, NE0%10000m1010hPa26%
17-Jun-2024 15:00Clear Sky20°C4 mph, SE0%10000m1006hPa16%
17-Jun-2024 18:00Clear Sky26°C13 mph, SW0%10000m1003hPa12%
17-Jun-2024 21:00Clear Sky28°C18 mph, SW0%10000m1000hPa9%
18-Jun-2024 00:00Clear Sky28°C20 mph, SW0%10000m997hPa10%
18-Jun-2024 03:00Clear Sky22°C16 mph, W2%10000m1000hPa14%
18-Jun-2024 06:00Clear Sky16°C9 mph, W1%10000m1003hPa24%
18-Jun-2024 09:00Clear Sky12°C4 mph, N0%10000m1005hPa33%
18-Jun-2024 12:00Scattered Clouds12°C4 mph, NE29%10000m1007hPa32%
18-Jun-2024 15:00Scattered Clouds19°C4 mph, S29%10000m1006hPa23%
18-Jun-2024 18:00Few Clouds24°C16 mph, SW15%10000m1005hPa16%
18-Jun-2024 21:00Clear Sky26°C18 mph, SW0%10000m1005hPa14%
19-Jun-2024 00:00Clear Sky25°C9 mph, W1%10000m1004hPa15%
19-Jun-2024 03:00Clear Sky18°C7 mph, N0%10000m1007hPa26%
19-Jun-2024 06:00Few Clouds14°C9 mph, N20%10000m1010hPa31%
19-Jun-2024 09:00Overcast Clouds14°C7 mph, N91%10000m1010hPa31%
19-Jun-2024 12:00Overcast Clouds15°C4 mph, N95%10000m1011hPa30%
19-Jun-2024 15:00Overcast Clouds21°C7 mph, SE100%10000m1011hPa21%
19-Jun-2024 18:00Broken Clouds27°C13 mph, S65%10000m1009hPa15%
19-Jun-2024 21:00Clear Sky29°C13 mph, SW2%10000m1007hPa12%
20-Jun-2024 00:00Few Clouds30°C7 mph, SW14%10000m1004hPa11%
20-Jun-2024 03:00Overcast Clouds24°C4 mph, E91%10000m1006hPa17%
20-Jun-2024 06:00Light Rain16°C4 mph, E85%10000m1015hPa68%
20-Jun-2024 09:00Light Rain13°C7 mph, NE2%10000m1018hPa81%
20-Jun-2024 12:00Light Rain12°C4 mph, NE3%10000m1018hPa83%
20-Jun-2024 15:00Light Rain19°C4 mph, SE4%10000m1017hPa54%
20-Jun-2024 18:00Light Rain25°C9 mph, S4%10000m1014hPa38%
20-Jun-2024 21:00Light Rain29°C22 mph, S18%10000m1010hPa24%
21-Jun-2024 00:00Clear Sky28°C20 mph, S6%10000m1009hPa25%
21-Jun-2024 03:00Light Rain17°C11 mph, NW86%9621m1015hPa69%
21-Jun-2024 06:00Light Rain15°C2 mph, NE93%7887m1017hPa84%
21-Jun-2024 09:00Moderate Rain15°C4 mph, N100%7850m1017hPa91%
21-Jun-2024 12:00Light Rain14°C7 mph, NE89%10000m1017hPa90%
21-Jun-2024 15:00Light Rain19°C4 mph, E32%10000m1016hPa65%
21-Jun-2024 18:00Light Rain23°C7 mph, S20%10000m1013hPa48%
21-Jun-2024 21:00Light Rain27°C9 mph, SW1%10000m1010hPa30%
22-Jun-2024 00:00Clear Sky28°C9 mph, SW6%10000m1008hPa24%
22-Jun-2024 03:00Clear Sky21°C4 mph, NW10%10000m1010hPa40%